X  Sluiten METAR luchtvaart weer gegevens      EHGG Eelde Airport
Temperatuur
20°C Temperatuur
14°C Dauwpunt
69% Vochtigheid



Wind
26 KM/U
16 MPH
7 M/S
14 KTS



220°
ZW
Huidig weer

Wat bewolking Wat bewolking
Luchtdruk 1019.98 (hPa) - 30.12 (inHg)
Zicht 6 (mijl) - 9.7 (km)
Vliegveld
Vliegveld code EHGG

Locatie : Eelde Airport
Afstand: 64 (km)

Metar:
EHGG 131325Z AUTO 22014KT 190V250 9999 FEW030 BKN035 OVC040 20/14 Q1020 NOSIG

Tijd: 13-04-2024 15:25 CEST